sensor_id;sensor_type;location;lat;lon;timestamp;temperature;humidity
758;DHT22;363;48.764;9.172;2024-02-21T02:20:16;8.30;99.90
758;DHT22;363;48.764;9.172;2024-02-21T02:22:47;8.10;99.90
758;DHT22;363;48.764;9.172;2024-02-21T02:25:14;11.20;99.90
758;DHT22;363;48.764;9.172;2024-02-21T02:27:44;8.40;99.90
758;DHT22;363;48.764;9.172;2024-02-21T02:30:11;9.60;99.90
758;DHT22;363;48.764;9.172;2024-02-21T02:32:37;8.70;99.90
758;DHT22;363;48.764;9.172;2024-02-21T02:35:02;7.20;99.90
758;DHT22;363;48.764;9.172;2024-02-21T02:37:28;8.80;99.90
758;DHT22;363;48.764;9.172;2024-02-21T02:42:19;8.40;99.90
758;DHT22;363;48.764;9.172;2024-02-21T03:03:17;8.60;99.90
758;DHT22;363;48.764;9.172;2024-02-21T03:05:46;10.80;99.90
758;DHT22;363;48.764;9.172;2024-02-21T03:08:21;10.30;99.90
758;DHT22;363;48.764;9.172;2024-02-21T03:10:57;8.60;99.90
758;DHT22;363;48.764;9.172;2024-02-21T03:13:23;9.80;99.90
758;DHT22;363;48.764;9.172;2024-02-21T03:18:18;8.30;99.90
758;DHT22;363;48.764;9.172;2024-02-21T03:20:48;7.00;99.90
758;DHT22;363;48.764;9.172;2024-02-21T03:23:26;8.50;99.90
758;DHT22;363;48.764;9.172;2024-02-21T03:26:41;8.70;99.90
758;DHT22;363;48.764;9.172;2024-02-21T03:29:10;8.50;99.90
758;DHT22;363;48.764;9.172;2024-02-21T05:39:59;7.70;99.90
758;DHT22;363;48.764;9.172;2024-02-21T05:43:07;7.70;99.90
758;DHT22;363;48.764;9.172;2024-02-21T05:45:35;9.50;99.90
758;DHT22;363;48.764;9.172;2024-02-21T05:48:25;7.90;99.90
758;DHT22;363;48.764;9.172;2024-02-21T05:51:11;8.40;99.90
758;DHT22;363;48.764;9.172;2024-02-21T05:53:37;8.10;99.90
758;DHT22;363;48.764;9.172;2024-02-21T05:56:13;7.70;99.90
758;DHT22;363;48.764;9.172;2024-02-21T06:01:18;7.60;99.90
758;DHT22;363;48.764;9.172;2024-02-21T06:03:53;8.90;99.90
758;DHT22;363;48.764;9.172;2024-02-21T06:06:29;7.50;99.90
758;DHT22;363;48.764;9.172;2024-02-21T06:08:57;9.90;99.90
758;DHT22;363;48.764;9.172;2024-02-21T06:16:22;7.60;99.90
758;DHT22;363;48.764;9.172;2024-02-21T06:21:17;7.10;99.90
758;DHT22;363;48.764;9.172;2024-02-21T06:23:48;8.50;99.90
758;DHT22;363;48.764;9.172;2024-02-21T06:26:16;7.30;99.90
758;DHT22;363;48.764;9.172;2024-02-21T06:28:44;8.00;99.90
758;DHT22;363;48.764;9.172;2024-02-21T06:31:12;8.60;99.90
758;DHT22;363;48.764;9.172;2024-02-21T06:33:49;7.20;99.90
758;DHT22;363;48.764;9.172;2024-02-21T06:36:22;7.30;99.90
758;DHT22;363;48.764;9.172;2024-02-21T06:41:27;7.30;99.90
758;DHT22;363;48.764;9.172;2024-02-21T06:44:22;7.30;99.90
758;DHT22;363;48.764;9.172;2024-02-21T06:46:58;7.10;99.90
758;DHT22;363;48.764;9.172;2024-02-21T06:52:08;7.20;99.90
758;DHT22;363;48.764;9.172;2024-02-21T06:57:15;7.00;99.90
758;DHT22;363;48.764;9.172;2024-02-21T07:08:42;7.50;99.90
758;DHT22;363;48.764;9.172;2024-02-21T07:11:08;8.40;99.90
758;DHT22;363;48.764;9.172;2024-02-21T07:20:52;7.90;99.90
758;DHT22;363;48.764;9.172;2024-02-21T07:36:15;8.40;99.90
758;DHT22;363;48.764;9.172;2024-02-21T07:38:49;8.80;99.90
758;DHT22;363;48.764;9.172;2024-02-21T08:05:34;9.80;99.90
758;DHT22;363;48.764;9.172;2024-02-21T08:08:00;9.60;99.90
758;DHT22;363;48.764;9.172;2024-02-21T08:10:27;11.30;99.90
758;DHT22;363;48.764;9.172;2024-02-21T08:12:52;10.10;99.90
758;DHT22;363;48.764;9.172;2024-02-21T08:17:44;10.40;98.70
758;DHT22;363;48.764;9.172;2024-02-21T08:20:10;12.60;99.90
758;DHT22;363;48.764;9.172;2024-02-21T08:22:38;10.70;99.50
758;DHT22;363;48.764;9.172;2024-02-21T08:25:04;11.00;99.30
758;DHT22;363;48.764;9.172;2024-02-21T08:30:53;10.80;98.60
758;DHT22;363;48.764;9.172;2024-02-21T08:33:25;10.80;99.80
758;DHT22;363;48.764;9.172;2024-02-21T08:42:05;11.60;98.70
758;DHT22;363;48.764;9.172;2024-02-21T08:47:00;11.50;96.10
758;DHT22;363;48.764;9.172;2024-02-21T08:49:52;12.70;97.10
758;DHT22;363;48.764;9.172;2024-02-21T08:57:26;11.30;95.40
758;DHT22;363;48.764;9.172;2024-02-21T08:59:55;13.90;97.10
758;DHT22;363;48.764;9.172;2024-02-21T09:02:20;11.70;95.50
758;DHT22;363;48.764;9.172;2024-02-21T09:07:12;11.80;95.10
758;DHT22;363;48.764;9.172;2024-02-21T09:09:37;13.40;96.80
758;DHT22;363;48.764;9.172;2024-02-21T09:12:06;12.80;95.20
758;DHT22;363;48.764;9.172;2024-02-21T09:14:33;12.10;95.90
758;DHT22;363;48.764;9.172;2024-02-21T09:20:29;12.50;92.90
758;DHT22;363;48.764;9.172;2024-02-21T09:23:00;14.80;95.90
758;DHT22;363;48.764;9.172;2024-02-21T09:25:28;12.00;93.80
758;DHT22;363;48.764;9.172;2024-02-21T09:27:55;12.40;92.60
758;DHT22;363;48.764;9.172;2024-02-21T09:30:21;13.10;94.40
758;DHT22;363;48.764;9.172;2024-02-21T09:32:47;12.80;92.30
758;DHT22;363;48.764;9.172;2024-02-21T09:35:25;14.40;93.70
758;DHT22;363;48.764;9.172;2024-02-21T09:37:53;13.30;92.90
758;DHT22;363;48.764;9.172;2024-02-21T09:43:02;13.30;91.20
758;DHT22;363;48.764;9.172;2024-02-21T09:45:32;14.10;89.50
758;DHT22;363;48.764;9.172;2024-02-21T10:06:33;15.80;79.00
758;DHT22;363;48.764;9.172;2024-02-21T10:09:01;17.40;82.70
758;DHT22;363;48.764;9.172;2024-02-21T10:28:09;15.90;79.50
758;DHT22;363;48.764;9.172;2024-02-21T10:37:09;16.00;77.30
758;DHT22;363;48.764;9.172;2024-02-21T10:39:41;16.40;78.30
758;DHT22;363;48.764;9.172;2024-02-21T10:42:30;16.30;76.60
758;DHT22;363;48.764;9.172;2024-02-21T10:45:00;13.90;73.30
758;DHT22;363;48.764;9.172;2024-02-21T11:02:18;15.50;75.50
758;DHT22;363;48.764;9.172;2024-02-21T11:04:45;16.10;78.20
758;DHT22;363;48.764;9.172;2024-02-21T11:07:14;15.50;76.80
758;DHT22;363;48.764;9.172;2024-02-21T11:09:58;15.70;77.40
758;DHT22;363;48.764;9.172;2024-02-21T11:15:46;15.20;76.30
758;DHT22;363;48.764;9.172;2024-02-21T11:18:23;15.50;77.30
758;DHT22;363;48.764;9.172;2024-02-21T11:20:50;15.00;75.50
758;DHT22;363;48.764;9.172;2024-02-21T11:23:27;16.00;76.00
758;DHT22;363;48.764;9.172;2024-02-21T11:26:07;15.80;76.30
758;DHT22;363;48.764;9.172;2024-02-21T11:28:32;16.50;76.10
758;DHT22;363;48.764;9.172;2024-02-21T11:31:07;16.10;75.60
758;DHT22;363;48.764;9.172;2024-02-21T11:33:34;15.90;74.60
758;DHT22;363;48.764;9.172;2024-02-21T11:36:01;16.00;73.80
758;DHT22;363;48.764;9.172;2024-02-21T11:38:29;16.30;73.50
758;DHT22;363;48.764;9.172;2024-02-21T11:40:55;16.20;73.10
758;DHT22;363;48.764;9.172;2024-02-21T11:43:20;16.00;73.60
758;DHT22;363;48.764;9.172;2024-02-21T11:45:46;16.20;74.00
758;DHT22;363;48.764;9.172;2024-02-21T11:48:12;15.90;71.70
758;DHT22;363;48.764;9.172;2024-02-21T11:50:37;17.20;72.50
758;DHT22;363;48.764;9.172;2024-02-21T11:53:05;16.30;69.30
758;DHT22;363;48.764;9.172;2024-02-21T11:55:57;16.40;69.20
758;DHT22;363;48.764;9.172;2024-02-21T11:58:25;16.20;69.90
758;DHT22;363;48.764;9.172;2024-02-21T12:00:52;15.40;71.40
758;DHT22;363;48.764;9.172;2024-02-21T12:03:18;16.00;71.60
758;DHT22;363;48.764;9.172;2024-02-21T12:05:43;15.50;74.20
758;DHT22;363;48.764;9.172;2024-02-21T12:08:15;16.10;73.50
758;DHT22;363;48.764;9.172;2024-02-21T12:10:42;15.90;71.60
758;DHT22;363;48.764;9.172;2024-02-21T12:13:09;17.00;71.80
758;DHT22;363;48.764;9.172;2024-02-21T12:15:35;15.50;71.70
758;DHT22;363;48.764;9.172;2024-02-21T12:18:04;17.40;74.00
758;DHT22;363;48.764;9.172;2024-02-21T12:20:31;17.10;73.30
758;DHT22;363;48.764;9.172;2024-02-21T12:23:01;15.70;66.20
758;DHT22;363;48.764;9.172;2024-02-21T12:25:30;15.10;67.70
758;DHT22;363;48.764;9.172;2024-02-21T12:27:56;15.70;69.90
758;DHT22;363;48.764;9.172;2024-02-21T12:30:22;16.40;72.00
758;DHT22;363;48.764;9.172;2024-02-21T12:32:48;15.60;68.30
758;DHT22;363;48.764;9.172;2024-02-21T12:35:14;15.00;65.60
758;DHT22;363;48.764;9.172;2024-02-21T12:37:40;15.50;65.60
758;DHT22;363;48.764;9.172;2024-02-21T12:40:07;15.70;65.70
758;DHT22;363;48.764;9.172;2024-02-21T12:42:34;15.40;65.40
758;DHT22;363;48.764;9.172;2024-02-21T12:44:59;15.30;65.20
758;DHT22;363;48.764;9.172;2024-02-21T12:48:01;15.60;66.90
758;DHT22;363;48.764;9.172;2024-02-21T12:50:36;15.40;64.20
758;DHT22;363;48.764;9.172;2024-02-21T12:53:02;16.10;67.70
758;DHT22;363;48.764;9.172;2024-02-21T12:55:27;15.90;66.90
758;DHT22;363;48.764;9.172;2024-02-21T12:57:53;15.70;66.10
758;DHT22;363;48.764;9.172;2024-02-21T13:00:20;13.70;65.40
758;DHT22;363;48.764;9.172;2024-02-21T13:02:47;16.70;65.50
758;DHT22;363;48.764;9.172;2024-02-21T13:05:13;16.00;65.30
758;DHT22;363;48.764;9.172;2024-02-21T13:07:38;16.50;64.90
758;DHT22;363;48.764;9.172;2024-02-21T13:10:04;16.60;65.10
758;DHT22;363;48.764;9.172;2024-02-21T13:12:30;15.80;63.70
758;DHT22;363;48.764;9.172;2024-02-21T13:14:56;16.00;64.20
758;DHT22;363;48.764;9.172;2024-02-21T13:17:21;16.00;63.60
758;DHT22;363;48.764;9.172;2024-02-21T13:19:47;15.60;64.20
758;DHT22;363;48.764;9.172;2024-02-21T13:22:13;16.00;64.70
758;DHT22;363;48.764;9.172;2024-02-21T13:24:39;15.30;65.80
758;DHT22;363;48.764;9.172;2024-02-21T13:27:04;15.50;63.80
758;DHT22;363;48.764;9.172;2024-02-21T13:29:30;15.60;62.20
758;DHT22;363;48.764;9.172;2024-02-21T13:31:55;15.80;61.90
758;DHT22;363;48.764;9.172;2024-02-21T13:34:21;15.50;61.20
758;DHT22;363;48.764;9.172;2024-02-21T13:36:48;15.80;62.20
758;DHT22;363;48.764;9.172;2024-02-21T13:39:13;15.70;60.70
758;DHT22;363;48.764;9.172;2024-02-21T13:41:42;15.70;62.90
758;DHT22;363;48.764;9.172;2024-02-21T13:44:07;15.60;60.40
758;DHT22;363;48.764;9.172;2024-02-21T13:46:35;15.70;62.70
758;DHT22;363;48.764;9.172;2024-02-21T13:49:05;15.70;63.60
758;DHT22;363;48.764;9.172;2024-02-21T13:51:34;16.70;64.90
758;DHT22;363;48.764;9.172;2024-02-21T13:54:04;15.70;63.40
758;DHT22;363;48.764;9.172;2024-02-21T13:56:30;15.70;62.60
758;DHT22;363;48.764;9.172;2024-02-21T13:58:57;16.00;63.40
758;DHT22;363;48.764;9.172;2024-02-21T14:01:23;15.00;61.20
758;DHT22;363;48.764;9.172;2024-02-21T14:03:50;15.70;62.90
758;DHT22;363;48.764;9.172;2024-02-21T14:06:16;15.10;63.10
758;DHT22;363;48.764;9.172;2024-02-21T14:08:42;15.50;64.30
758;DHT22;363;48.764;9.172;2024-02-21T14:11:08;17.50;65.40
758;DHT22;363;48.764;9.172;2024-02-21T14:13:34;16.50;63.30
758;DHT22;363;48.764;9.172;2024-02-21T14:16:01;17.10;64.10
758;DHT22;363;48.764;9.172;2024-02-21T14:18:27;15.60;61.40
758;DHT22;363;48.764;9.172;2024-02-21T14:20:53;15.20;61.70
758;DHT22;363;48.764;9.172;2024-02-21T14:23:18;15.20;62.30
758;DHT22;363;48.764;9.172;2024-02-21T14:25:44;15.30;62.90
758;DHT22;363;48.764;9.172;2024-02-21T14:28:10;15.60;63.50
758;DHT22;363;48.764;9.172;2024-02-21T14:30:35;16.10;64.40
758;DHT22;363;48.764;9.172;2024-02-21T14:33:01;16.50;65.50
758;DHT22;363;48.764;9.172;2024-02-21T14:35:27;15.40;64.30
758;DHT22;363;48.764;9.172;2024-02-21T14:37:55;14.80;62.60
758;DHT22;363;48.764;9.172;2024-02-21T14:40:22;16.30;63.10
758;DHT22;363;48.764;9.172;2024-02-21T14:42:48;15.00;62.80
758;DHT22;363;48.764;9.172;2024-02-21T14:45:14;17.10;64.80
758;DHT22;363;48.764;9.172;2024-02-21T14:47:42;17.30;63.00
758;DHT22;363;48.764;9.172;2024-02-21T14:50:09;15.70;61.90
758;DHT22;363;48.764;9.172;2024-02-21T14:52:35;15.70;62.40
758;DHT22;363;48.764;9.172;2024-02-21T14:55:01;16.90;62.40
758;DHT22;363;48.764;9.172;2024-02-21T14:57:28;15.40;61.00
758;DHT22;363;48.764;9.172;2024-02-21T14:59:54;15.20;60.40
758;DHT22;363;48.764;9.172;2024-02-21T15:02:22;14.90;60.90
758;DHT22;363;48.764;9.172;2024-02-21T15:04:50;15.20;60.00
758;DHT22;363;48.764;9.172;2024-02-21T15:07:17;15.20;60.80
758;DHT22;363;48.764;9.172;2024-02-21T15:09:42;15.50;61.10
758;DHT22;363;48.764;9.172;2024-02-21T15:12:08;15.10;63.00
758;DHT22;363;48.764;9.172;2024-02-21T15:14:34;15.70;63.30
758;DHT22;363;48.764;9.172;2024-02-21T15:17:00;14.90;61.70
758;DHT22;363;48.764;9.172;2024-02-21T15:19:26;15.90;62.10
758;DHT22;363;48.764;9.172;2024-02-21T15:21:52;15.20;63.00
758;DHT22;363;48.764;9.172;2024-02-21T15:24:19;15.30;64.10
758;DHT22;363;48.764;9.172;2024-02-21T15:26:44;15.10;66.40
758;DHT22;363;48.764;9.172;2024-02-21T15:29:10;15.30;66.40
758;DHT22;363;48.764;9.172;2024-02-21T15:31:37;15.10;66.40
758;DHT22;363;48.764;9.172;2024-02-21T15:34:03;15.10;66.30
758;DHT22;363;48.764;9.172;2024-02-21T15:36:28;14.50;65.70
758;DHT22;363;48.764;9.172;2024-02-21T15:38:54;15.00;67.70
758;DHT22;363;48.764;9.172;2024-02-21T15:41:20;15.00;69.30
758;DHT22;363;48.764;9.172;2024-02-21T15:43:46;15.10;69.60
758;DHT22;363;48.764;9.172;2024-02-21T15:46:12;15.10;70.00
758;DHT22;363;48.764;9.172;2024-02-21T15:48:38;15.10;71.10
758;DHT22;363;48.764;9.172;2024-02-21T15:51:04;14.90;71.00
758;DHT22;363;48.764;9.172;2024-02-21T15:53:31;14.40;71.10
758;DHT22;363;48.764;9.172;2024-02-21T15:55:57;14.50;71.70
758;DHT22;363;48.764;9.172;2024-02-21T15:58:22;14.80;73.80
758;DHT22;363;48.764;9.172;2024-02-21T16:00:51;14.80;72.80
758;DHT22;363;48.764;9.172;2024-02-21T16:03:16;14.40;72.90
758;DHT22;363;48.764;9.172;2024-02-21T16:05:42;14.70;74.10
758;DHT22;363;48.764;9.172;2024-02-21T16:08:09;14.80;75.00
758;DHT22;363;48.764;9.172;2024-02-21T16:10:35;14.30;74.80
758;DHT22;363;48.764;9.172;2024-02-21T16:13:00;14.50;75.30
758;DHT22;363;48.764;9.172;2024-02-21T16:15:26;14.20;74.70
758;DHT22;363;48.764;9.172;2024-02-21T16:17:51;14.30;75.30
758;DHT22;363;48.764;9.172;2024-02-21T16:20:20;14.40;75.80
758;DHT22;363;48.764;9.172;2024-02-21T16:22:46;14.10;75.90
758;DHT22;363;48.764;9.172;2024-02-21T16:25:12;14.60;76.50
758;DHT22;363;48.764;9.172;2024-02-21T16:27:38;14.50;77.10
758;DHT22;363;48.764;9.172;2024-02-21T16:30:06;14.00;76.80
758;DHT22;363;48.764;9.172;2024-02-21T16:32:32;14.00;77.90
758;DHT22;363;48.764;9.172;2024-02-21T16:34:59;14.40;78.40
758;DHT22;363;48.764;9.172;2024-02-21T16:37:25;13.80;77.80
758;DHT22;363;48.764;9.172;2024-02-21T16:39:51;13.90;79.60
758;DHT22;363;48.764;9.172;2024-02-21T16:42:18;14.00;79.50
758;DHT22;363;48.764;9.172;2024-02-21T16:44:43;14.50;80.00
758;DHT22;363;48.764;9.172;2024-02-21T16:47:09;14.00;79.10
758;DHT22;363;48.764;9.172;2024-02-21T16:49:34;15.80;81.90
758;DHT22;363;48.764;9.172;2024-02-21T16:52:00;15.30;82.20
758;DHT22;363;48.764;9.172;2024-02-21T16:54:25;14.60;81.70
758;DHT22;363;48.764;9.172;2024-02-21T16:56:51;13.80;80.50
758;DHT22;363;48.764;9.172;2024-02-21T16:59:17;12.90;80.00
758;DHT22;363;48.764;9.172;2024-02-21T17:01:44;15.40;83.80
758;DHT22;363;48.764;9.172;2024-02-21T17:04:10;14.50;83.90
758;DHT22;363;48.764;9.172;2024-02-21T17:06:36;14.30;83.70
758;DHT22;363;48.764;9.172;2024-02-21T17:09:03;14.70;85.40
758;DHT22;363;48.764;9.172;2024-02-21T17:11:29;12.90;84.20
758;DHT22;363;48.764;9.172;2024-02-21T17:13:54;13.60;86.40
758;DHT22;363;48.764;9.172;2024-02-21T17:16:20;14.40;87.60
758;DHT22;363;48.764;9.172;2024-02-21T17:18:46;12.70;86.20
758;DHT22;363;48.764;9.172;2024-02-21T17:21:12;13.70;88.30
758;DHT22;363;48.764;9.172;2024-02-21T17:23:39;12.30;85.50
758;DHT22;363;48.764;9.172;2024-02-21T17:26:07;13.30;87.20
758;DHT22;363;48.764;9.172;2024-02-21T17:28:32;13.20;88.40
758;DHT22;363;48.764;9.172;2024-02-21T17:30:58;13.90;89.70
758;DHT22;363;48.764;9.172;2024-02-21T17:33:23;14.60;90.80
758;DHT22;363;48.764;9.172;2024-02-21T17:35:49;15.00;90.40
758;DHT22;363;48.764;9.172;2024-02-21T17:38:15;14.30;90.10
758;DHT22;363;48.764;9.172;2024-02-21T17:40:44;13.60;89.40
758;DHT22;363;48.764;9.172;2024-02-21T17:43:09;12.10;88.50
758;DHT22;363;48.764;9.172;2024-02-21T17:45:36;14.60;90.70
758;DHT22;363;48.764;9.172;2024-02-21T17:48:02;12.30;88.40
758;DHT22;363;48.764;9.172;2024-02-21T17:50:28;12.80;90.00
758;DHT22;363;48.764;9.172;2024-02-21T17:52:54;14.10;91.00
758;DHT22;363;48.764;9.172;2024-02-21T17:55:20;13.10;90.70
758;DHT22;363;48.764;9.172;2024-02-21T17:57:47;13.00;88.70
758;DHT22;363;48.764;9.172;2024-02-21T18:00:16;12.90;88.20
758;DHT22;363;48.764;9.172;2024-02-21T18:02:42;13.00;88.50
758;DHT22;363;48.764;9.172;2024-02-21T18:05:07;12.40;89.40
758;DHT22;363;48.764;9.172;2024-02-21T18:07:34;12.90;90.00
758;DHT22;363;48.764;9.172;2024-02-21T18:09:59;13.20;88.80
758;DHT22;363;48.764;9.172;2024-02-21T18:12:25;13.30;88.20
758;DHT22;363;48.764;9.172;2024-02-21T18:14:52;12.80;88.50
758;DHT22;363;48.764;9.172;2024-02-21T18:17:17;13.30;89.60
758;DHT22;363;48.764;9.172;2024-02-21T18:19:43;12.70;90.10
758;DHT22;363;48.764;9.172;2024-02-21T18:22:09;12.90;89.40
758;DHT22;363;48.764;9.172;2024-02-21T18:24:34;13.10;88.40
758;DHT22;363;48.764;9.172;2024-02-21T18:27:00;13.20;89.10
758;DHT22;363;48.764;9.172;2024-02-21T18:29:26;12.80;88.90
758;DHT22;363;48.764;9.172;2024-02-21T18:31:53;13.10;88.70
758;DHT22;363;48.764;9.172;2024-02-21T18:34:18;12.50;88.10
758;DHT22;363;48.764;9.172;2024-02-21T18:36:44;12.70;86.90
758;DHT22;363;48.764;9.172;2024-02-21T18:39:12;12.70;83.30
758;DHT22;363;48.764;9.172;2024-02-21T18:41:37;12.60;79.10
758;DHT22;363;48.764;9.172;2024-02-21T18:44:06;12.90;80.00
758;DHT22;363;48.764;9.172;2024-02-21T18:46:33;12.80;80.20
758;DHT22;363;48.764;9.172;2024-02-21T18:48:59;12.90;78.00
758;DHT22;363;48.764;9.172;2024-02-21T18:54:38;15.00;79.90
758;DHT22;363;48.764;9.172;2024-02-21T18:59:43;14.80;78.00
758;DHT22;363;48.764;9.172;2024-02-21T19:02:09;12.70;77.00
758;DHT22;363;48.764;9.172;2024-02-21T19:04:35;12.00;75.20
758;DHT22;363;48.764;9.172;2024-02-21T19:07:03;14.30;76.70
758;DHT22;363;48.764;9.172;2024-02-21T19:09:28;13.30;75.70
758;DHT22;363;48.764;9.172;2024-02-21T19:11:54;14.90;76.60
758;DHT22;363;48.764;9.172;2024-02-21T19:14:20;14.20;75.30
758;DHT22;363;48.764;9.172;2024-02-21T19:16:46;14.80;75.60
758;DHT22;363;48.764;9.172;2024-02-21T19:19:12;13.80;73.00
758;DHT22;363;48.764;9.172;2024-02-21T19:21:37;14.70;76.10
758;DHT22;363;48.764;9.172;2024-02-21T19:24:03;14.00;73.50
758;DHT22;363;48.764;9.172;2024-02-21T19:26:29;13.20;72.60
758;DHT22;363;48.764;9.172;2024-02-21T19:28:55;13.40;73.80
758;DHT22;363;48.764;9.172;2024-02-21T19:31:20;14.60;75.00
758;DHT22;363;48.764;9.172;2024-02-21T19:33:46;13.50;73.90
758;DHT22;363;48.764;9.172;2024-02-21T19:36:15;13.60;74.10
758;DHT22;363;48.764;9.172;2024-02-21T19:38:40;13.10;73.90
758;DHT22;363;48.764;9.172;2024-02-21T19:41:07;13.20;74.10
758;DHT22;363;48.764;9.172;2024-02-21T19:43:33;13.40;74.80
758;DHT22;363;48.764;9.172;2024-02-21T19:45:59;12.90;73.10
758;DHT22;363;48.764;9.172;2024-02-21T19:48:24;13.00;72.90
758;DHT22;363;48.764;9.172;2024-02-21T19:50:50;13.20;73.50
758;DHT22;363;48.764;9.172;2024-02-21T19:53:16;13.10;73.40
758;DHT22;363;48.764;9.172;2024-02-21T19:55:44;13.00;73.50
758;DHT22;363;48.764;9.172;2024-02-21T19:58:10;13.40;74.30
758;DHT22;363;48.764;9.172;2024-02-21T20:00:35;13.30;74.30
758;DHT22;363;48.764;9.172;2024-02-21T20:03:04;13.10;74.10
758;DHT22;363;48.764;9.172;2024-02-21T20:05:30;13.20;74.70
758;DHT22;363;48.764;9.172;2024-02-21T20:07:57;13.40;75.60
758;DHT22;363;48.764;9.172;2024-02-21T20:10:23;12.90;75.30
758;DHT22;363;48.764;9.172;2024-02-21T20:12:49;13.30;76.00
758;DHT22;363;48.764;9.172;2024-02-21T20:15:14;12.60;75.50
758;DHT22;363;48.764;9.172;2024-02-21T20:17:41;13.40;76.70
758;DHT22;363;48.764;9.172;2024-02-21T20:20:11;12.90;75.60
758;DHT22;363;48.764;9.172;2024-02-21T20:22:36;12.90;75.60
758;DHT22;363;48.764;9.172;2024-02-21T20:25:03;13.40;77.10
758;DHT22;363;48.764;9.172;2024-02-21T20:27:29;13.00;77.00
758;DHT22;363;48.764;9.172;2024-02-21T20:29:56;12.90;77.00
758;DHT22;363;48.764;9.172;2024-02-21T20:32:22;13.30;77.60
758;DHT22;363;48.764;9.172;2024-02-21T20:34:47;12.90;77.80
758;DHT22;363;48.764;9.172;2024-02-21T20:37:14;13.40;78.70
758;DHT22;363;48.764;9.172;2024-02-21T20:39:41;12.70;78.10
758;DHT22;363;48.764;9.172;2024-02-21T20:42:08;13.10;78.90
758;DHT22;363;48.764;9.172;2024-02-21T20:44:34;12.50;78.10
758;DHT22;363;48.764;9.172;2024-02-21T20:47:01;13.30;78.90
758;DHT22;363;48.764;9.172;2024-02-21T20:49:26;13.10;79.10
758;DHT22;363;48.764;9.172;2024-02-21T20:51:52;13.00;79.40
758;DHT22;363;48.764;9.172;2024-02-21T20:54:17;13.50;79.90
758;DHT22;363;48.764;9.172;2024-02-21T20:56:43;14.20;80.40
758;DHT22;363;48.764;9.172;2024-02-21T20:59:15;14.20;82.70
758;DHT22;363;48.764;9.172;2024-02-21T21:01:43;11.60;78.90
758;DHT22;363;48.764;9.172;2024-02-21T21:04:09;14.70;81.60
758;DHT22;363;48.764;9.172;2024-02-21T21:06:34;13.70;80.70
758;DHT22;363;48.764;9.172;2024-02-21T21:09:00;14.30;82.30
758;DHT22;363;48.764;9.172;2024-02-21T21:11:25;12.70;79.60
758;DHT22;363;48.764;9.172;2024-02-21T21:13:51;14.80;81.10
758;DHT22;363;48.764;9.172;2024-02-21T21:16:16;14.20;81.70
758;DHT22;363;48.764;9.172;2024-02-21T21:18:43;12.70;80.20
758;DHT22;363;48.764;9.172;2024-02-21T21:21:09;13.20;78.90
758;DHT22;363;48.764;9.172;2024-02-21T21:23:36;13.20;81.90
758;DHT22;363;48.764;9.172;2024-02-21T21:26:02;13.70;81.70
758;DHT22;363;48.764;9.172;2024-02-21T21:28:29;13.40;84.10
758;DHT22;363;48.764;9.172;2024-02-21T21:30:54;14.30;82.10
758;DHT22;363;48.764;9.172;2024-02-21T21:33:21;13.30;80.30
758;DHT22;363;48.764;9.172;2024-02-21T21:35:47;12.90;79.30
758;DHT22;363;48.764;9.172;2024-02-21T21:38:17;13.60;79.90
758;DHT22;363;48.764;9.172;2024-02-21T21:40:43;13.20;79.00
758;DHT22;363;48.764;9.172;2024-02-21T21:43:08;13.30;78.90
758;DHT22;363;48.764;9.172;2024-02-21T21:45:34;13.30;78.80
758;DHT22;363;48.764;9.172;2024-02-21T21:47:59;13.60;78.80
758;DHT22;363;48.764;9.172;2024-02-21T21:50:25;13.20;78.30
758;DHT22;363;48.764;9.172;2024-02-21T21:52:52;12.90;78.00
758;DHT22;363;48.764;9.172;2024-02-21T21:55:17;13.60;78.90
758;DHT22;363;48.764;9.172;2024-02-21T21:57:44;13.30;78.00
758;DHT22;363;48.764;9.172;2024-02-21T22:00:10;13.50;78.00
758;DHT22;363;48.764;9.172;2024-02-21T22:02:36;13.40;78.20
758;DHT22;363;48.764;9.172;2024-02-21T22:05:02;13.80;78.30
758;DHT22;363;48.764;9.172;2024-02-21T22:07:27;13.50;77.80
758;DHT22;363;48.764;9.172;2024-02-21T22:09:53;13.50;78.10
758;DHT22;363;48.764;9.172;2024-02-21T22:12:18;13.60;78.20
758;DHT22;363;48.764;9.172;2024-02-21T22:14:44;13.50;78.40
758;DHT22;363;48.764;9.172;2024-02-21T22:17:10;13.50;78.60
758;DHT22;363;48.764;9.172;2024-02-21T22:19:40;13.90;78.70
758;DHT22;363;48.764;9.172;2024-02-21T22:22:35;14.10;79.20
758;DHT22;363;48.764;9.172;2024-02-21T22:25:03;13.50;80.50
758;DHT22;363;48.764;9.172;2024-02-21T22:27:29;13.50;79.90
758;DHT22;363;48.764;9.172;2024-02-21T22:29:56;14.00;79.50
758;DHT22;363;48.764;9.172;2024-02-21T22:32:25;14.00;79.90
758;DHT22;363;48.764;9.172;2024-02-21T22:34:54;13.70;77.90
758;DHT22;363;48.764;9.172;2024-02-21T22:37:19;14.00;79.00
758;DHT22;363;48.764;9.172;2024-02-21T22:39:45;14.30;83.70
758;DHT22;363;48.764;9.172;2024-02-21T22:42:15;15.00;82.40
758;DHT22;363;48.764;9.172;2024-02-21T22:44:41;13.40;78.20
758;DHT22;363;48.764;9.172;2024-02-21T22:47:10;13.40;79.60
758;DHT22;363;48.764;9.172;2024-02-21T22:49:36;15.50;83.60
758;DHT22;363;48.764;9.172;2024-02-21T22:52:02;14.40;80.20
758;DHT22;363;48.764;9.172;2024-02-21T22:54:35;14.80;80.80
758;DHT22;363;48.764;9.172;2024-02-21T22:57:03;13.50;79.90
758;DHT22;363;48.764;9.172;2024-02-21T22:59:32;13.70;82.70
758;DHT22;363;48.764;9.172;2024-02-21T23:02:01;13.90;82.40
758;DHT22;363;48.764;9.172;2024-02-21T23:04:34;15.70;82.60
758;DHT22;363;48.764;9.172;2024-02-21T23:07:00;14.00;79.40
758;DHT22;363;48.764;9.172;2024-02-21T23:09:27;13.70;77.20
758;DHT22;363;48.764;9.172;2024-02-21T23:11:55;13.40;77.20
758;DHT22;363;48.764;9.172;2024-02-21T23:14:24;14.00;79.60
758;DHT22;363;48.764;9.172;2024-02-21T23:16:51;15.30;80.30
758;DHT22;363;48.764;9.172;2024-02-21T23:19:16;14.00;76.40
758;DHT22;363;48.764;9.172;2024-02-21T23:21:46;16.00;79.00
758;DHT22;363;48.764;9.172;2024-02-21T23:24:15;16.10;79.90
758;DHT22;363;48.764;9.172;2024-02-21T23:26:40;13.60;76.60
758;DHT22;363;48.764;9.172;2024-02-21T23:29:07;14.00;76.90
758;DHT22;363;48.764;9.172;2024-02-21T23:31:33;15.20;79.70
758;DHT22;363;48.764;9.172;2024-02-21T23:34:00;15.10;77.50
758;DHT22;363;48.764;9.172;2024-02-21T23:36:26;14.00;77.20
758;DHT22;363;48.764;9.172;2024-02-21T23:38:52;15.40;78.00
758;DHT22;363;48.764;9.172;2024-02-21T23:41:20;12.50;75.20
758;DHT22;363;48.764;9.172;2024-02-21T23:43:45;14.00;75.70
758;DHT22;363;48.764;9.172;2024-02-21T23:46:11;14.70;76.90
758;DHT22;363;48.764;9.172;2024-02-21T23:48:38;14.40;78.20
758;DHT22;363;48.764;9.172;2024-02-21T23:51:06;13.90;76.50
758;DHT22;363;48.764;9.172;2024-02-21T23:53:35;13.20;74.30
758;DHT22;363;48.764;9.172;2024-02-21T23:56:08;14.00;75.60
758;DHT22;363;48.764;9.172;2024-02-21T23:58:34;14.00;78.00
